createdAt,value
2022-08-18T00:00:32.154Z,19.70
2022-08-18T00:02:34.899Z,19.60
2022-08-18T00:04:46.038Z,19.60
2022-08-18T00:06:52.144Z,19.70
2022-08-18T00:08:54.852Z,19.70
2022-08-18T00:10:58.925Z,19.70
2022-08-18T00:13:01.635Z,19.70
2022-08-18T00:15:05.619Z,19.70
2022-08-18T00:17:08.342Z,19.70
2022-08-18T00:19:11.092Z,19.80
2022-08-18T00:21:13.820Z,19.80
2022-08-18T00:23:16.554Z,19.90
2022-08-18T00:25:19.813Z,19.90
2022-08-18T00:27:28.705Z,19.90
2022-08-18T00:29:31.686Z,19.90
2022-08-18T00:31:34.421Z,20.00
2022-08-18T00:33:37.139Z,20.00
2022-08-18T00:35:39.995Z,20.00
2022-08-18T00:37:42.872Z,20.00
2022-08-18T00:39:46.163Z,20.00
2022-08-18T00:41:50.522Z,19.90
2022-08-18T00:43:55.447Z,19.90
2022-08-18T00:45:58.161Z,19.90
2022-08-18T00:48:02.084Z,19.90
2022-08-18T00:50:05.503Z,19.90
2022-08-18T00:52:08.242Z,19.90
2022-08-18T00:54:12.874Z,19.90
2022-08-18T00:56:16.498Z,19.90
2022-08-18T00:58:23.522Z,19.80
2022-08-18T01:00:27.618Z,19.80
2022-08-18T01:02:32.859Z,19.80
2022-08-18T01:04:38.025Z,19.80
2022-08-18T01:06:46.831Z,19.80
2022-08-18T01:08:49.535Z,19.80
2022-08-18T01:10:52.258Z,19.80
2022-08-18T01:12:58.592Z,19.70
2022-08-18T01:15:01.325Z,19.70
2022-08-18T01:17:31.512Z,19.60
2022-08-18T01:19:48.575Z,19.70
2022-08-18T01:21:53.651Z,19.70
2022-08-18T01:23:57.716Z,19.70
2022-08-18T01:26:03.717Z,19.70
2022-08-18T01:28:06.734Z,19.70
2022-08-18T01:30:11.129Z,19.70
2022-08-18T01:32:16.440Z,19.70
2022-08-18T01:34:21.467Z,19.70
2022-08-18T01:36:24.191Z,19.70
2022-08-18T01:38:27.190Z,19.80
2022-08-18T01:41:20.988Z,19.80
2022-08-18T01:42:56.439Z,19.80
2022-08-18T01:44:59.156Z,19.70
2022-08-18T01:47:01.870Z,19.60
2022-08-18T01:49:04.600Z,19.60
2022-08-18T01:51:08.367Z,19.60
2022-08-18T01:53:11.452Z,19.60
2022-08-18T01:55:14.762Z,19.50
2022-08-18T01:57:19.680Z,19.50
2022-08-18T01:59:22.380Z,19.50
2022-08-18T02:01:36.966Z,19.40
2022-08-18T02:03:41.524Z,19.40
2022-08-18T02:05:46.267Z,19.30
2022-08-18T02:07:54.115Z,19.30
2022-08-18T02:09:57.309Z,19.30
2022-08-18T02:12:01.953Z,19.30
2022-08-18T02:14:06.056Z,19.30
2022-08-18T02:16:09.064Z,19.30
2022-08-18T02:18:15.153Z,19.30
2022-08-18T02:20:33.166Z,19.20
2022-08-18T02:22:35.864Z,19.20
2022-08-18T02:24:38.588Z,19.20
2022-08-18T02:26:41.941Z,19.10
2022-08-18T02:28:44.801Z,19.20
2022-08-18T02:30:49.835Z,19.20
2022-08-18T02:32:52.536Z,19.20
2022-08-18T02:34:55.254Z,19.10
2022-08-18T02:36:59.673Z,19.20
2022-08-18T02:39:02.388Z,19.10
2022-08-18T02:41:08.035Z,19.10
2022-08-18T02:43:10.766Z,19.10
2022-08-18T02:45:13.716Z,19.10
2022-08-18T02:47:20.356Z,19.10
2022-08-18T02:49:23.066Z,19.00
2022-08-18T02:51:26.092Z,19.10
2022-08-18T02:53:29.391Z,19.00
2022-08-18T02:55:32.156Z,19.00
2022-08-18T02:57:34.869Z,19.00
2022-08-18T02:59:38.348Z,19.00
2022-08-18T03:01:43.384Z,19.00
2022-08-18T03:03:47.831Z,19.00
2022-08-18T03:05:50.562Z,19.00
2022-08-18T03:07:53.805Z,19.00
2022-08-18T03:09:56.716Z,19.00
2022-08-18T03:11:59.807Z,19.00
2022-08-18T03:14:02.516Z,19.00
2022-08-18T03:16:05.625Z,19.00
2022-08-18T03:18:08.337Z,18.90
2022-08-18T03:20:12.590Z,18.90
2022-08-18T03:22:28.589Z,18.90
2022-08-18T03:24:33.058Z,18.90
2022-08-18T03:26:36.224Z,18.90
2022-08-18T03:28:39.005Z,18.90
2022-08-18T03:30:42.041Z,18.90
2022-08-18T03:32:45.900Z,18.90
2022-08-18T03:34:48.821Z,18.80
2022-08-18T03:36:52.893Z,18.80
2022-08-18T03:38:55.644Z,18.70
2022-08-18T03:40:58.373Z,18.70
2022-08-18T03:43:06.444Z,18.70
2022-08-18T03:45:31.878Z,18.70
2022-08-18T03:47:34.584Z,18.70
2022-08-18T03:49:37.727Z,18.70
2022-08-18T03:51:43.505Z,18.70
2022-08-18T03:53:49.197Z,18.70
2022-08-18T03:55:51.933Z,18.60
2022-08-18T03:57:55.518Z,18.60
2022-08-18T03:59:58.248Z,18.60
2022-08-18T04:02:02.869Z,18.60
2022-08-18T04:04:06.497Z,18.50
2022-08-18T04:06:12.566Z,18.50
2022-08-18T04:08:15.440Z,18.50
2022-08-18T04:10:19.921Z,18.50
2022-08-18T04:12:22.672Z,18.40
2022-08-18T04:14:28.721Z,18.40
2022-08-18T04:16:32.270Z,18.40
2022-08-18T04:18:35.133Z,18.40
2022-08-18T04:20:38.580Z,18.40
2022-08-18T04:22:57.527Z,18.40
2022-08-18T04:25:01.023Z,18.40
2022-08-18T04:27:05.810Z,18.40
2022-08-18T04:29:08.872Z,18.40
2022-08-18T04:31:12.468Z,18.40
2022-08-18T04:33:15.193Z,18.40
2022-08-18T04:35:18.058Z,18.40
2022-08-18T04:37:20.773Z,18.40
2022-08-18T04:39:24.001Z,18.40
2022-08-18T04:41:27.830Z,18.40
2022-08-18T04:43:32.076Z,18.40
2022-08-18T04:45:34.834Z,18.50
2022-08-18T04:47:41.508Z,18.50
2022-08-18T04:49:44.693Z,18.60
2022-08-18T04:52:36.413Z,18.60
2022-08-18T04:54:31.641Z,18.60
2022-08-18T04:56:35.446Z,18.60
2022-08-18T04:58:39.526Z,18.60
2022-08-18T05:00:43.805Z,18.60
2022-08-18T05:02:46.546Z,18.60
2022-08-18T05:04:49.304Z,18.70
2022-08-18T05:06:52.008Z,18.80
2022-08-18T05:08:54.883Z,18.80
2022-08-18T05:11:03.718Z,18.90
2022-08-18T05:13:06.914Z,18.90
2022-08-18T05:15:11.403Z,18.90
2022-08-18T05:17:14.215Z,18.90
2022-08-18T05:19:21.935Z,19.00
2022-08-18T05:21:26.315Z,19.00
2022-08-18T05:23:30.161Z,19.00
2022-08-18T05:25:33.077Z,19.10
2022-08-18T05:27:36.733Z,19.10
2022-08-18T05:29:45.706Z,19.10
2022-08-18T05:31:50.525Z,19.10
2022-08-18T05:33:55.621Z,19.10
2022-08-18T05:36:03.988Z,19.20
2022-08-18T05:38:24.389Z,19.20
2022-08-18T05:40:27.344Z,19.30
2022-08-18T05:42:31.324Z,19.40
2022-08-18T05:44:35.727Z,19.50
2022-08-18T05:46:40.029Z,19.60
2022-08-18T05:48:44.078Z,19.70
2022-08-18T05:50:46.866Z,19.80
2022-08-18T05:52:52.941Z,19.90
2022-08-18T05:55:15.113Z,19.90
2022-08-18T05:57:19.477Z,19.90
2022-08-18T05:59:24.008Z,20.00
2022-08-18T06:01:28.214Z,20.00
2022-08-18T06:03:46.333Z,20.10
2022-08-18T06:05:54.486Z,20.20
2022-08-18T06:07:59.497Z,20.20
2022-08-18T06:10:02.402Z,20.10
2022-08-18T06:12:10.541Z,20.20
2022-08-18T06:14:13.879Z,20.20
2022-08-18T06:16:19.748Z,20.30
2022-08-18T06:18:47.433Z,20.30
2022-08-18T06:21:06.317Z,20.30
2022-08-18T06:23:16.063Z,20.40
2022-08-18T06:25:21.148Z,20.40
2022-08-18T06:27:26.879Z,20.50
2022-08-18T06:29:38.575Z,20.50
2022-08-18T06:31:45.024Z,20.50
2022-08-18T06:33:51.364Z,20.40
2022-08-18T06:36:02.498Z,20.40
2022-08-18T06:38:28.152Z,20.50
2022-08-18T06:40:30.885Z,20.40
2022-08-18T06:42:35.658Z,20.40
2022-08-18T06:44:43.790Z,20.30
2022-08-18T06:46:48.303Z,20.30
2022-08-18T06:48:52.373Z,20.30
2022-08-18T06:50:57.135Z,20.30
2022-08-18T06:53:01.037Z,20.20
2022-08-18T06:55:05.513Z,20.20
2022-08-18T06:57:08.226Z,20.20
2022-08-18T06:59:23.517Z,20.10
2022-08-18T07:01:26.338Z,20.10
2022-08-18T07:03:43.352Z,20.10
2022-08-18T07:06:00.873Z,20.10
2022-08-18T07:08:11.425Z,20.10
2022-08-18T07:10:30.467Z,20.10
2022-08-18T07:12:33.219Z,20.00
2022-08-18T07:14:43.844Z,20.00
2022-08-18T07:16:58.291Z,19.90
2022-08-18T07:19:08.169Z,19.90
2022-08-18T07:21:12.617Z,19.90
2022-08-18T07:23:24.369Z,20.00
2022-08-18T07:25:28.612Z,20.00
2022-08-18T07:27:46.612Z,20.00
2022-08-18T07:30:04.311Z,20.10
2022-08-18T07:32:21.014Z,20.10
2022-08-18T07:34:26.533Z,20.30
2022-08-18T07:36:33.543Z,20.40
2022-08-18T07:38:43.113Z,20.40
2022-08-18T07:40:48.792Z,20.40
2022-08-18T07:43:01.252Z,20.40
2022-08-18T07:45:06.316Z,20.40
2022-08-18T07:47:13.705Z,20.40
2022-08-18T07:49:22.203Z,20.40
2022-08-18T07:51:27.074Z,20.50
2022-08-18T07:53:54.717Z,20.60
2022-08-18T07:56:02.262Z,20.70
2022-08-18T07:58:13.303Z,20.60
2022-08-18T08:00:40.974Z,20.80
2022-08-18T08:02:54.820Z,20.90
2022-08-18T08:05:02.793Z,21.00
2022-08-18T08:07:24.087Z,21.10
2022-08-18T08:09:31.865Z,21.30
2022-08-18T08:11:44.589Z,21.40
2022-08-18T08:14:08.033Z,21.60
2022-08-18T08:16:14.794Z,21.70
2022-08-18T08:18:20.908Z,21.80
2022-08-18T08:20:32.677Z,22.00
2022-08-18T08:22:40.259Z,22.40
2022-08-18T08:24:47.053Z,22.50
2022-08-18T08:26:53.615Z,22.70
2022-08-18T08:29:02.945Z,23.00
2022-08-18T08:31:33.374Z,23.50
2022-08-18T08:33:34.227Z,23.40
2022-08-18T08:35:49.233Z,23.30
2022-08-18T08:37:56.794Z,23.20
2022-08-18T08:40:03.851Z,23.30
2022-08-18T08:42:30.845Z,23.40
2022-08-18T08:44:34.025Z,23.40
2022-08-18T08:46:40.585Z,23.40
2022-08-18T08:48:45.244Z,23.60
2022-08-18T08:50:50.288Z,23.70
2022-08-18T08:52:57.206Z,23.90
2022-08-18T08:55:04.385Z,24.20
2022-08-18T08:57:07.115Z,24.10
2022-08-18T08:59:13.423Z,23.90
2022-08-18T09:01:23.940Z,24.00
2022-08-18T09:03:32.603Z,24.30
2022-08-18T09:05:37.436Z,24.60
2022-08-18T09:07:58.978Z,24.90
2022-08-18T09:10:29.462Z,25.00
2022-08-18T09:12:45.495Z,25.50
2022-08-18T09:15:02.344Z,26.00
2022-08-18T09:17:15.019Z,26.00
2022-08-18T09:19:29.381Z,26.50
2022-08-18T09:21:38.443Z,26.50
2022-08-18T09:23:42.187Z,26.30
2022-08-18T09:25:48.695Z,26.30
2022-08-18T09:28:10.302Z,26.20
2022-08-18T09:30:38.507Z,26.10
2022-08-18T09:32:53.888Z,26.50
2022-08-18T09:35:05.343Z,26.00
2022-08-18T09:37:18.930Z,25.90
2022-08-18T09:39:53.127Z,26.10
2022-08-18T09:41:59.823Z,26.40
2022-08-18T09:44:21.458Z,27.00
2022-08-18T09:46:51.370Z,27.70
2022-08-18T09:48:54.077Z,28.10
2022-08-18T09:51:20.781Z,28.20
2022-08-18T09:53:38.398Z,28.10
2022-08-18T09:55:59.257Z,28.10
2022-08-18T09:58:17.236Z,27.90
2022-08-18T10:03:26.450Z,28.80
2022-08-18T10:05:35.278Z,29.00
2022-08-18T10:07:43.489Z,28.70
2022-08-18T10:09:59.104Z,28.10
2022-08-18T10:12:23.236Z,27.60
2022-08-18T10:15:08.905Z,28.10
2022-08-18T10:17:23.783Z,28.80
2022-08-18T10:19:39.535Z,29.20
2022-08-18T10:22:02.314Z,29.60
2022-08-18T10:27:13.594Z,28.50
2022-08-18T10:29:50.973Z,29.20
2022-08-18T10:32:22.899Z,28.90
2022-08-18T10:34:38.212Z,28.40
2022-08-18T10:36:52.852Z,28.30
2022-08-18T10:38:55.561Z,28.20
2022-08-18T10:41:09.434Z,27.80
2022-08-18T10:43:45.359Z,27.80
2022-08-18T10:45:59.415Z,27.70
2022-08-18T10:48:16.644Z,27.60
2022-08-18T10:50:23.974Z,27.20
2022-08-18T10:52:45.945Z,27.30
2022-08-18T10:55:11.078Z,27.50
2022-08-18T10:57:20.886Z,27.40
2022-08-18T10:59:28.528Z,28.30
2022-08-18T11:01:46.569Z,29.20
2022-08-18T11:04:13.746Z,28.90
2022-08-18T11:08:44.785Z,30.30
2022-08-18T11:11:24.828Z,30.80
2022-08-18T11:13:16.015Z,30.70
2022-08-18T11:15:22.643Z,29.50
2022-08-18T11:17:34.522Z,29.50
2022-08-18T11:19:42.186Z,30.00
2022-08-18T11:21:45.998Z,29.70
2022-08-18T11:24:08.483Z,29.30
2022-08-18T11:26:18.443Z,29.70
2022-08-18T11:30:47.143Z,29.10
2022-08-18T11:32:52.211Z,28.70
2022-08-18T11:35:03.961Z,29.50
2022-08-18T11:37:11.436Z,30.30
2022-08-18T11:39:14.582Z,31.20
2022-08-18T11:41:19.017Z,31.30
2022-08-18T11:43:25.709Z,31.40
2022-08-18T11:45:35.731Z,30.90
2022-08-18T11:48:02.457Z,30.40
2022-08-18T11:50:11.763Z,30.00
2022-08-18T11:52:25.009Z,29.80
2022-08-18T11:54:39.340Z,29.40
2022-08-18T11:56:53.898Z,29.30
2022-08-18T11:58:57.571Z,29.20
2022-08-18T12:01:02.981Z,29.00
2022-08-18T12:03:06.517Z,28.80
2022-08-18T12:05:10.795Z,28.80
2022-08-18T12:07:14.526Z,28.80
2022-08-18T12:10:07.815Z,28.70
2022-08-18T12:11:52.433Z,29.50
2022-08-18T12:14:00.514Z,29.40
2022-08-18T12:16:32.876Z,30.10
2022-08-18T12:18:35.603Z,30.70
2022-08-18T12:20:39.751Z,30.50
2022-08-18T12:22:44.303Z,30.20
2022-08-18T12:27:21.007Z,31.70
2022-08-18T12:29:28.103Z,31.40
2022-08-18T12:31:47.459Z,30.70
2022-08-18T12:34:00.081Z,30.10
2022-08-18T12:36:06.094Z,29.60
2022-08-18T12:38:12.661Z,29.50
2022-08-18T12:40:16.384Z,29.40
2022-08-18T12:42:20.264Z,29.30
2022-08-18T12:44:23.010Z,29.30
2022-08-18T12:46:29.919Z,29.70
2022-08-18T12:48:34.280Z,30.00
2022-08-18T12:50:49.946Z,30.00
2022-08-18T12:52:59.096Z,30.20
2022-08-18T12:55:01.823Z,30.20
2022-08-18T12:57:07.794Z,29.80
2022-08-18T12:59:11.886Z,29.80
2022-08-18T13:01:17.697Z,30.20
2022-08-18T13:03:21.024Z,30.50
2022-08-18T13:05:26.436Z,30.50
2022-08-18T13:07:32.414Z,30.50
2022-08-18T13:09:53.509Z,30.50
2022-08-18T13:11:57.160Z,30.60
2022-08-18T13:14:03.263Z,31.10
2022-08-18T13:16:16.187Z,31.70
2022-08-18T13:18:19.436Z,32.30
2022-08-18T13:20:30.442Z,32.40
2022-08-18T13:22:33.565Z,32.60
2022-08-18T13:24:37.735Z,32.40
2022-08-18T13:26:46.361Z,32.30
2022-08-18T13:28:56.915Z,32.00
2022-08-18T13:31:01.728Z,32.40
2022-08-18T13:33:06.137Z,32.60
2022-08-18T13:35:30.142Z,33.00
2022-08-18T13:37:38.475Z,33.10
2022-08-18T13:39:43.797Z,33.30
2022-08-18T13:41:47.552Z,33.40
2022-08-18T13:43:50.373Z,32.80
2022-08-18T13:45:56.276Z,32.20
2022-08-18T13:47:59.533Z,31.80
2022-08-18T13:50:05.533Z,31.70
2022-08-18T13:52:33.095Z,31.60
2022-08-18T13:54:38.393Z,30.90
2022-08-18T13:56:42.536Z,30.60
2022-08-18T13:58:54.676Z,30.30
2022-08-18T14:01:10.655Z,30.10
2022-08-18T14:03:42.479Z,29.90
2022-08-18T14:05:51.482Z,29.80
2022-08-18T14:07:55.168Z,29.70
2022-08-18T14:10:04.434Z,29.60
2022-08-18T14:12:15.797Z,29.60
2022-08-18T14:14:25.769Z,29.80
2022-08-18T14:16:31.144Z,30.20
2022-08-18T14:18:33.882Z,30.10
2022-08-18T14:20:54.036Z,30.30
2022-08-18T14:23:23.496Z,30.70
2022-08-18T14:25:45.456Z,30.90
2022-08-18T14:27:56.232Z,31.00
2022-08-18T14:29:59.836Z,30.80
2022-08-18T14:32:02.973Z,30.90
2022-08-18T14:34:05.720Z,31.40
2022-08-18T14:36:09.499Z,31.50
2022-08-18T14:38:15.074Z,31.40
2022-08-18T14:40:20.167Z,31.30
2022-08-18T14:42:33.084Z,31.10
2022-08-18T14:44:46.041Z,31.00
2022-08-18T14:46:54.113Z,30.80
2022-08-18T14:48:57.484Z,30.50
2022-08-18T14:51:00.480Z,30.60
2022-08-18T14:53:05.984Z,30.60
2022-08-18T14:55:11.230Z,30.40
2022-08-18T14:57:14.988Z,30.40
2022-08-18T14:59:17.789Z,30.40
2022-08-18T15:01:23.275Z,29.90
2022-08-18T15:03:28.312Z,29.90
2022-08-18T15:05:34.752Z,30.10
2022-08-18T15:07:38.418Z,29.90
2022-08-18T15:09:43.904Z,29.60
2022-08-18T15:11:46.655Z,29.10
2022-08-18T15:13:55.545Z,28.80
2022-08-18T15:16:01.903Z,28.80
2022-08-18T15:18:07.348Z,28.80
2022-08-18T15:20:12.655Z,28.70
2022-08-18T15:22:33.039Z,28.70
2022-08-18T15:24:53.557Z,28.60
2022-08-18T15:27:03.198Z,28.60
2022-08-18T15:29:09.012Z,28.50
2022-08-18T15:31:49.525Z,28.40
2022-08-18T15:33:36.630Z,28.40
2022-08-18T15:35:44.160Z,28.30
2022-08-18T15:37:47.823Z,28.20
2022-08-18T15:40:01.037Z,28.20
2022-08-18T15:42:09.601Z,28.20
2022-08-18T15:44:13.522Z,28.10
2022-08-18T15:46:16.928Z,28.10
2022-08-18T15:48:20.192Z,27.90
2022-08-18T15:50:25.741Z,28.00
2022-08-18T15:52:29.655Z,27.90
2022-08-18T15:54:32.369Z,27.90
2022-08-18T15:56:36.289Z,27.80
2022-08-18T15:58:39.572Z,27.80
2022-08-18T16:00:45.522Z,27.80
2022-08-18T16:02:52.824Z,27.70
2022-08-18T16:04:55.568Z,27.70
2022-08-18T16:07:00.933Z,27.60
2022-08-18T16:09:04.139Z,27.60
2022-08-18T16:11:08.336Z,27.60
2022-08-18T16:13:11.071Z,27.50
2022-08-18T16:15:14.254Z,27.50
2022-08-18T16:17:30.034Z,27.50
2022-08-18T16:19:34.289Z,27.40
2022-08-18T16:21:39.901Z,27.40
2022-08-18T16:23:46.601Z,27.40
2022-08-18T16:25:49.331Z,27.20
2022-08-18T16:27:53.889Z,27.20
2022-08-18T16:29:57.089Z,27.20
2022-08-18T16:31:59.839Z,27.20
2022-08-18T16:34:05.851Z,27.10
2022-08-18T16:36:10.184Z,27.10
2022-08-18T16:38:13.749Z,27.10
2022-08-18T16:40:18.818Z,27.00
2022-08-18T16:42:21.653Z,27.00
2022-08-18T16:44:24.861Z,27.10
2022-08-18T16:46:28.155Z,27.00
2022-08-18T16:48:31.074Z,27.00
2022-08-18T16:50:33.944Z,27.00
2022-08-18T16:52:36.719Z,27.00
2022-08-18T16:54:39.437Z,27.00
2022-08-18T16:56:43.493Z,27.00
2022-08-18T16:59:05.270Z,27.00
2022-08-18T17:01:26.514Z,27.00
2022-08-18T17:03:53.907Z,27.00
2022-08-18T17:06:00.601Z,27.00
2022-08-18T17:08:03.516Z,27.00
2022-08-18T17:10:07.157Z,26.80
2022-08-18T17:12:12.088Z,26.90
2022-08-18T17:14:14.850Z,26.80
2022-08-18T17:16:24.485Z,26.70
2022-08-18T17:18:27.464Z,26.60
2022-08-18T17:20:30.181Z,26.50
2022-08-18T17:22:33.123Z,26.40
2022-08-18T17:24:35.824Z,26.40
2022-08-18T17:26:44.512Z,26.40
2022-08-18T17:28:52.666Z,26.30
2022-08-18T17:30:55.469Z,26.30
2022-08-18T17:33:01.482Z,26.30
2022-08-18T17:35:06.152Z,26.20
2022-08-18T17:37:09.367Z,26.20
2022-08-18T17:39:12.404Z,26.10
2022-08-18T17:41:20.474Z,26.10
2022-08-18T17:43:24.061Z,26.10
2022-08-18T17:45:29.514Z,26.10
2022-08-18T17:47:33.910Z,26.00
2022-08-18T17:50:27.845Z,26.00
2022-08-18T17:52:20.725Z,26.00
2022-08-18T17:54:29.636Z,25.80
2022-08-18T17:56:36.285Z,25.80
2022-08-18T17:58:41.362Z,25.80
2022-08-18T18:00:45.848Z,25.70
2022-08-18T18:02:48.755Z,25.70
2022-08-18T18:04:52.487Z,25.60
2022-08-18T18:06:56.411Z,25.50
2022-08-18T18:09:00.371Z,25.50
2022-08-18T18:11:11.029Z,25.40
2022-08-18T18:13:22.836Z,25.40
2022-08-18T18:15:31.648Z,25.40
2022-08-18T18:17:37.797Z,25.30
2022-08-18T18:19:40.565Z,25.30
2022-08-18T18:22:00.936Z,25.20
2022-08-18T18:24:15.232Z,25.20
2022-08-18T18:26:30.379Z,25.10
2022-08-18T18:28:34.214Z,25.10
2022-08-18T18:30:37.004Z,25.00
2022-08-18T18:32:59.543Z,24.90
2022-08-18T18:35:15.070Z,24.90
2022-08-18T18:37:25.550Z,24.90
2022-08-18T18:39:33.922Z,24.90
2022-08-18T18:41:40.113Z,24.90
2022-08-18T18:43:44.618Z,24.80
2022-08-18T18:46:07.352Z,24.70
2022-08-18T18:48:48.250Z,24.70
2022-08-18T18:50:49.414Z,24.60
2022-08-18T18:53:02.679Z,24.50
2022-08-18T18:55:07.516Z,24.40
2022-08-18T18:57:13.787Z,24.40
2022-08-18T18:59:20.320Z,24.40
2022-08-18T19:01:26.166Z,24.30
2022-08-18T19:03:35.680Z,24.30
2022-08-18T19:05:39.655Z,24.30
2022-08-18T19:07:50.119Z,24.30
2022-08-18T19:09:58.235Z,24.20
2022-08-18T19:12:05.760Z,24.20
2022-08-18T19:14:10.135Z,24.10
2022-08-18T19:16:23.604Z,24.10
2022-08-18T19:18:28.524Z,24.10
2022-08-18T19:20:34.971Z,24.00
2022-08-18T19:22:40.733Z,24.00
2022-08-18T19:24:46.873Z,24.00
2022-08-18T19:26:51.800Z,23.90
2022-08-18T19:29:12.480Z,23.90
2022-08-18T19:31:19.253Z,23.80
2022-08-18T19:33:27.612Z,23.80
2022-08-18T19:35:40.277Z,23.70
2022-08-18T19:38:09.329Z,23.70
2022-08-18T19:40:15.483Z,23.70
2022-08-18T19:42:20.611Z,23.60
2022-08-18T19:44:31.129Z,23.60
2022-08-18T19:46:37.893Z,23.50
2022-08-18T19:48:42.360Z,23.50
2022-08-18T19:50:48.881Z,23.50
2022-08-18T19:53:04.785Z,23.50
2022-08-18T19:55:14.404Z,23.40
2022-08-18T19:57:27.669Z,23.40
2022-08-18T19:59:47.146Z,23.30
2022-08-18T20:02:02.501Z,23.20
2022-08-18T20:04:12.020Z,23.10
2022-08-18T20:06:34.750Z,23.10
2022-08-18T20:09:03.033Z,23.00
2022-08-18T20:11:20.864Z,23.00
2022-08-18T20:13:44.665Z,23.00
2022-08-18T20:16:00.302Z,22.90
2022-08-18T20:18:09.455Z,22.90
2022-08-18T20:20:15.191Z,22.80
2022-08-18T20:22:34.041Z,22.80
2022-08-18T20:24:43.890Z,22.80
2022-08-18T20:26:49.034Z,22.80
2022-08-18T20:28:52.248Z,22.70
2022-08-18T20:31:01.606Z,22.80
2022-08-18T20:33:19.658Z,22.60
2022-08-18T20:35:25.370Z,22.60
2022-08-18T20:37:28.237Z,22.50
2022-08-18T20:39:34.995Z,22.50
2022-08-18T20:41:44.857Z,22.50
2022-08-18T20:43:47.712Z,22.50
2022-08-18T20:45:50.421Z,22.50
2022-08-18T20:48:07.849Z,22.50
2022-08-18T20:50:39.229Z,22.40
2022-08-18T20:52:45.460Z,22.40
2022-08-18T20:54:57.637Z,22.40
2022-08-18T20:57:02.580Z,22.30
2022-08-18T20:59:09.365Z,22.30
2022-08-18T21:01:12.520Z,22.40
2022-08-18T21:03:16.205Z,22.40
2022-08-18T21:05:28.328Z,22.30
2022-08-18T21:07:36.665Z,22.20
2022-08-18T21:09:40.256Z,22.20
2022-08-18T21:11:45.786Z,22.20
2022-08-18T21:13:51.437Z,22.20
2022-08-18T21:15:55.945Z,22.20
2022-08-18T21:18:02.021Z,22.20
2022-08-18T21:20:07.290Z,22.10
2022-08-18T21:22:11.684Z,22.10
2022-08-18T21:24:32.500Z,22.10
2022-08-18T21:26:35.316Z,22.00
2022-08-18T21:28:40.532Z,22.00
2022-08-18T21:30:54.603Z,22.00
2022-08-18T21:32:57.315Z,22.00
2022-08-18T21:35:05.607Z,22.00
2022-08-18T21:37:12.316Z,21.90
2022-08-18T21:39:16.422Z,22.00
2022-08-18T21:41:22.109Z,22.00
2022-08-18T21:43:40.628Z,21.80
2022-08-18T21:45:47.778Z,21.80
2022-08-18T21:47:52.133Z,21.80
2022-08-18T21:50:02.423Z,21.80
2022-08-18T21:52:05.403Z,21.80
2022-08-18T21:54:08.899Z,21.70
2022-08-18T21:56:20.945Z,21.80
2022-08-18T21:58:32.755Z,21.80
2022-08-18T22:00:39.129Z,21.80
2022-08-18T22:02:42.171Z,21.70
2022-08-18T22:04:46.933Z,21.70
2022-08-18T22:06:51.019Z,21.60
2022-08-18T22:08:57.047Z,21.60
2022-08-18T22:11:59.657Z,21.60
2022-08-18T22:14:02.088Z,21.60
2022-08-18T22:16:25.811Z,21.50
2022-08-18T22:18:36.057Z,21.50
2022-08-18T22:20:42.182Z,21.50
2022-08-18T22:23:02.641Z,21.50
2022-08-18T22:25:07.711Z,21.40
2022-08-18T22:27:12.252Z,21.40
2022-08-18T22:29:25.898Z,21.30
2022-08-18T22:31:31.440Z,21.20
2022-08-18T22:33:34.140Z,21.20
2022-08-18T22:35:36.864Z,21.20
2022-08-18T22:37:45.331Z,21.20
2022-08-18T22:39:56.872Z,21.20
2022-08-18T22:41:59.812Z,21.20
2022-08-18T22:44:05.430Z,21.10
2022-08-18T22:46:08.136Z,21.10
2022-08-18T22:48:12.427Z,21.10
2022-08-18T22:50:15.207Z,21.10
2022-08-18T22:52:19.899Z,21.10
2022-08-18T22:54:23.090Z,21.10
2022-08-18T22:56:34.547Z,21.10
2022-08-18T22:58:37.961Z,21.00
2022-08-18T23:00:42.052Z,21.00
2022-08-18T23:02:47.709Z,20.90
2022-08-18T23:04:51.785Z,20.90
2022-08-18T23:06:54.761Z,20.80
2022-08-18T23:08:57.553Z,20.70
2022-08-18T23:11:00.273Z,20.70
2022-08-18T23:13:04.710Z,20.70
2022-08-18T23:15:10.915Z,20.60
2022-08-18T23:17:13.928Z,20.60
2022-08-18T23:19:17.242Z,20.60
2022-08-18T23:21:34.427Z,20.60
2022-08-18T23:23:38.413Z,20.60
2022-08-18T23:25:41.331Z,20.60
2022-08-18T23:27:44.130Z,20.60
2022-08-18T23:29:46.857Z,20.60
2022-08-18T23:31:49.877Z,20.60
2022-08-18T23:33:52.609Z,20.60
2022-08-18T23:35:55.428Z,20.60
2022-08-18T23:37:59.471Z,20.60
2022-08-18T23:40:02.393Z,20.60
2022-08-18T23:42:06.365Z,20.50
2022-08-18T23:44:09.130Z,20.50
2022-08-18T23:46:16.838Z,20.40
2022-08-18T23:48:20.956Z,20.40
2022-08-18T23:50:23.946Z,20.30
2022-08-18T23:52:29.228Z,20.30
2022-08-18T23:54:34.640Z,20.30
2022-08-18T23:56:37.713Z,20.30
2022-08-18T23:58:40.415Z,20.20
